Orbital elements of COSMOS 2251 DEB
| Launched | 15 June 1993 |
| Flight ended | – |
| Launch site | Plesetsk Missile and Space Complex, Russia |
| Owner | Commonwealth of Independent States (former USSR) |
| NORAD ID | 33994 |
| Date fetched |
Epoch osculation |
Inc. [°] |
Ecc. | RA asc node [hr] |
Arg Peri. [°] |
Mean anom [°] |
Mean motion [rev/day] |
Abs. mag |
| Date fetched |
Epoch osculation |
Inc. [°] |
Ecc. | RA asc node [hr] |
Arg Peri. [°] |
Mean anom [°] |
Mean motion [rev/day] |
Abs. mag |
| 2026 May 08 17:57 | 2026 May 05 10:37:10 | 74.0423 | 0.00227 | 18.9637 | 23.3478 | 7.7382 | 14.41317 | – |
| 2026 May 07 17:58 | 2026 May 05 10:37:10 | 74.0423 | 0.00227 | 18.9637 | 23.3478 | 7.7382 | 14.41317 | – |
| 2026 May 06 17:57 | 2026 May 05 10:37:10 | 74.0423 | 0.00227 | 18.9637 | 23.3478 | 7.7382 | 14.41317 | – |
| 2026 May 05 17:57 | 2026 May 05 10:37:10 | 74.0423 | 0.00227 | 18.9637 | 23.3478 | 7.7382 | 14.41317 | – |
| 2026 May 04 17:57 | 2026 Apr 30 14:11:29 | 74.0422 | 0.00225 | 19.5623 | 33.8126 | 7.7382 | 14.41317 | – |
| 2026 May 03 17:57 | 2026 Apr 30 14:11:29 | 74.0422 | 0.00225 | 19.5623 | 33.8126 | 7.7382 | 14.41317 | – |
| 2026 May 02 17:57 | 2026 Apr 30 14:11:29 | 74.0422 | 0.00225 | 19.5623 | 33.8126 | 7.7382 | 14.41317 | – |
| 2026 May 01 17:56 | 2026 Apr 30 14:11:29 | 74.0422 | 0.00225 | 19.5623 | 33.8126 | 7.7382 | 14.41317 | – |
| 2026 Apr 30 17:56 | 2026 Apr 30 14:11:29 | 74.0422 | 0.00225 | 19.5623 | 33.8126 | 7.7382 | 14.41317 | – |
| 2026 Apr 29 17:57 | 2026 Apr 24 13:13:01 | 74.0422 | 0.00224 | 20.3078 | 46.9076 | 7.7382 | 14.41317 | – |
| 2026 Apr 28 17:56 | 2026 Apr 24 13:13:01 | 74.0422 | 0.00224 | 20.3078 | 46.9076 | 7.7382 | 14.41317 | – |
| 2026 Apr 27 17:58 | 2026 Apr 24 13:13:01 | 74.0422 | 0.00224 | 20.3078 | 46.9076 | 7.7382 | 14.41317 | – |
| 2026 Apr 26 17:58 | 2026 Apr 24 13:13:01 | 74.0422 | 0.00224 | 20.3078 | 46.9076 | 7.7382 | 14.41317 | – |
| 2026 Apr 25 17:58 | 2026 Apr 24 13:13:01 | 74.0422 | 0.00224 | 20.3078 | 46.9076 | 7.7382 | 14.41317 | – |
| 2026 Apr 24 17:59 | 2026 Apr 24 13:13:01 | 74.0422 | 0.00224 | 20.3078 | 46.9076 | 7.7382 | 14.41317 | – |
| 2026 Apr 23 17:57 | 2026 Apr 19 07:10:10 | 74.0427 | 0.00222 | 20.9559 | 58.3081 | 7.7382 | 14.41317 | – |
| 2026 Apr 22 17:57 | 2026 Apr 19 07:10:10 | 74.0427 | 0.00222 | 20.9559 | 58.3081 | 7.7382 | 14.41317 | – |
| 2026 Apr 21 17:57 | 2026 Apr 19 07:10:10 | 74.0427 | 0.00222 | 20.9559 | 58.3081 | 7.7382 | 14.41317 | – |
| 2026 Apr 20 17:57 | 2026 Apr 19 07:10:10 | 74.0427 | 0.00222 | 20.9559 | 58.3081 | 7.7382 | 14.41317 | – |
| 2026 Apr 19 17:58 | 2026 Apr 19 07:10:10 | 74.0427 | 0.00222 | 20.9559 | 58.3081 | 7.7382 | 14.41317 | – |
| 2026 Apr 18 17:56 | 2026 Apr 13 07:37:43 | 74.0437 | 0.00221 | 21.6939 | 71.4212 | 7.7382 | 14.41317 | – |
| 2026 Apr 16 17:57 | 2026 Apr 13 07:37:43 | 74.0437 | 0.00221 | 21.6939 | 71.4212 | 7.7382 | 14.41317 | – |
| 2026 Apr 14 17:57 | 2026 Apr 13 07:37:43 | 74.0437 | 0.00221 | 21.6939 | 71.4212 | 7.7382 | 14.41317 | – |
| 2026 Apr 13 17:57 | 2026 Apr 13 07:37:43 | 74.0437 | 0.00221 | 21.6939 | 71.4212 | 7.7382 | 14.41317 | – |
| 2026 Apr 12 17:57 | 2026 Apr 08 09:36:48 | 74.0446 | 0.00220 | 22.3007 | 82.2481 | 7.7382 | 14.41317 | – |
| 2026 Apr 11 17:57 | 2026 Apr 08 09:36:48 | 74.0446 | 0.00220 | 22.3007 | 82.2481 | 7.7382 | 14.41317 | – |